Time;durP1;ratioP1;P1;durP2;ratioP2;P2;SDS_P1;SDS_P2;PMS_P1;PMS_P2;Temp;Humidity;BMP_temperature;BMP_pressure;BME280_temperature;BME280_humidity;BME280_pressure;Samples;Min_cycle;Max_cycle;Signal;HPM_P1;HPM_P2
2022/07/20 15:22:03;;;;;;;9.18;3.75;;;36.30;64.50;;;;;;5061094;28;20928;-72
2022/07/20 15:24:29;;;;;;;8.43;3.75;;;36.20;64.40;;;;;;5060715;28;20086;-72
2022/07/20 15:26:54;;;;;;;11.35;4.05;;;36.30;64.60;;;;;;5053204;28;20075;-72
2022/07/20 15:29:20;;;;;;;7.57;3.22;;;36.20;64.70;;;;;;5037245;28;20037;-72
2022/07/20 15:31:45;;;;;;;8.02;3.38;;;36.10;64.70;;;;;;5041582;28;20029;-72
2022/07/20 15:34:11;;;;;;;8.27;3.28;;;36.20;64.30;;;;;;5041606;28;20111;-72
2022/07/20 15:36:37;;;;;;;10.50;3.63;;;36.40;64.70;;;;;;5041187;28;20033;-72
2022/07/20 15:39:03;;;;;;;6.57;3.17;;;36.00;64.60;;;;;;5032743;28;20047;-73
2022/07/20 15:41:29;;;;;;;10.20;3.50;;;36.30;64.90;;;;;;5036441;28;20044;-72
2022/07/20 15:43:54;;;;;;;7.15;3.30;;;36.20;64.60;;;;;;5033376;28;20029;-71
2022/07/20 15:46:20;;;;;;;7.72;3.35;;;36.20;64.80;;;;;;5036796;28;20848;-72
2022/07/20 15:48:46;;;;;;;6.75;3.90;;;36.00;64.80;;;;;;5037172;28;20341;-72
2022/07/20 15:51:12;;;;;;;11.40;3.47;;;36.10;64.70;;;;;;5039066;28;20073;-73
2022/07/20 15:53:39;;;;;;;10.77;3.47;;;35.90;64.70;;;;;;5039213;28;20136;-74
2022/07/20 15:56:05;;;;;;;5.40;3.08;;;36.00;64.90;;;;;;5027716;28;20037;-72
2022/07/20 15:58:31;;;;;;;12.02;3.33;;;36.00;64.80;;;;;;5030613;28;20465;-73
2022/07/20 16:00:57;;;;;;;10.27;3.67;;;36.10;64.70;;;;;;5023557;28;20061;-71
2022/07/20 16:03:23;;;;;;;7.63;3.20;;;36.00;65.30;;;;;;5031382;28;20022;-73
2022/07/20 16:05:48;;;;;;;8.88;3.20;;;35.90;64.50;;;;;;5034957;28;20584;-72
2022/07/20 16:08:14;;;;;;;7.32;3.05;;;35.90;65.10;;;;;;5030809;28;20029;-72
2022/07/20 16:10:41;;;;;;;8.40;3.35;;;35.90;64.90;;;;;;5027026;28;20522;-72
2022/07/20 16:13:06;;;;;;;9.25;3.70;;;35.90;64.90;;;;;;5026656;28;20048;-73
2022/07/20 16:15:32;;;;;;;7.18;3.38;;;35.80;64.70;;;;;;5029727;28;20034;-74
2022/07/20 16:17:58;;;;;;;8.05;4.03;;;35.60;64.50;;;;;;5030034;28;20029;-73
2022/07/20 16:20:24;;;;;;;8.95;3.55;;;35.80;64.90;;;;;;5033010;28;20091;-72
2022/07/20 16:22:50;;;;;;;7.03;2.80;;;35.90;64.90;;;;;;5035737;28;20056;-72
2022/07/20 16:25:16;;;;;;;5.28;3.00;;;35.80;64.50;;;;;;5039652;28;20118;-73
2022/07/20 16:27:42;;;;;;;8.40;3.35;;;35.60;64.50;;;;;;5038449;28;20025;-73
2022/07/20 16:30:09;;;;;;;6.35;3.38;;;35.60;64.70;;;;;;5036945;28;20116;-73
2022/07/20 16:32:35;;;;;;;5.95;3.30;;;35.70;64.80;;;;;;5028473;28;20041;-72
2022/07/20 16:35:01;;;;;;;13.10;4.10;;;35.60;65.00;;;;;;5030597;28;20038;-73
2022/07/20 16:37:27;;;;;;;9.18;3.70;;;35.50;65.00;;;;;;5024454;28;20037;-73
2022/07/20 16:39:53;;;;;;;5.90;3.55;;;35.50;65.00;;;;;;5021162;28;20112;-73
2022/07/20 16:42:19;;;;;;;10.25;3.30;;;35.40;64.80;;;;;;5028967;28;20072;-73
2022/07/20 16:44:44;;;;;;;7.93;3.60;;;35.30;64.70;;;;;;5031826;28;20468;-74
2022/07/20 16:47:10;;;;;;;5.93;2.97;;;35.40;64.50;;;;;;5040627;28;20037;-73
2022/07/20 16:49:36;;;;;;;5.68;2.85;;;35.50;64.70;;;;;;5020284;28;20017;-73
2022/07/20 16:52:02;;;;;;;6.03;3.55;;;35.30;64.80;;;;;;5020390;28;20231;-73
2022/07/20 16:54:27;;;;;;;4.72;3.00;;;35.20;64.90;;;;;;5024098;28;20079;-74
2022/07/20 16:56:53;;;;;;;7.70;3.17;;;35.10;64.40;;;;;;5016194;28;20068;-74
2022/07/20 16:59:19;;;;;;;7.95;2.90;;;35.20;64.60;;;;;;5019373;28;20106;-74
2022/07/20 17:01:45;;;;;;;9.93;3.65;;;35.00;64.40;;;;;;5046303;28;20603;-75
2022/07/20 17:04:11;;;;;;;5.85;3.45;;;35.10;64.80;;;;;;5020018;28;20026;-74
2022/07/20 17:06:37;;;;;;;5.40;3.05;;;35.20;64.90;;;;;;5016871;28;20025;-75
2022/07/20 17:09:03;;;;;;;6.28;3.22;;;35.00;65.10;;;;;;5019750;28;20536;-74
2022/07/20 17:11:29;;;;;;;4.75;2.92;;;34.90;64.80;;;;;;5027263;28;20117;-74
2022/07/20 17:13:55;;;;;;;7.43;3.00;;;34.80;65.00;;;;;;5030167;28;20151;-74
2022/07/20 17:16:24;;;;;;;6.03;2.90;;;34.70;64.90;;;;;;5027750;28;20052;-75
2022/07/20 17:18:50;;;;;;;7.05;3.10;;;34.70;65.10;;;;;;5023437;28;20034;-75
2022/07/20 17:21:15;;;;;;;6.25;3.00;;;34.80;65.10;;;;;;5032769;28;20057;-74
2022/07/20 17:23:42;;;;;;;6.25;3.75;;;34.70;65.00;;;;;;5026720;28;20045;-77
2022/07/20 17:26:07;;;;;;;7.43;3.28;;;34.50;65.40;;;;;;5023370;28;20048;-75
2022/07/20 17:28:33;;;;;;;5.93;3.20;;;34.50;65.60;;;;;;5026148;28;20037;-74
2022/07/20 17:30:59;;;;;;;10.23;3.58;;;34.40;65.40;;;;;;5026446;28;20085;-76
2022/07/20 17:33:26;;;;;;;7.53;3.17;;;34.30;65.30;;;;;;5011925;28;20054;-76
2022/07/20 17:35:52;;;;;;;6.68;3.03;;;34.00;65.40;;;;;;5014530;28;20037;-76
2022/07/20 17:38:17;;;;;;;6.35;2.97;;;33.80;66.10;;;;;;5019106;28;20033;-74
2022/07/20 17:40:44;;;;;;;10.20;3.33;;;33.60;65.90;;;;;;5023106;28;20030;-74
2022/07/20 17:43:10;;;;;;;8.55;3.60;;;33.60;66.30;;;;;;5023395;28;20034;-75
2022/07/20 17:45:36;;;;;;;5.90;3.55;;;33.50;67.00;;;;;;5026005;28;20034;-74
2022/07/20 17:48:02;;;;;;;7.53;3.08;;;33.40;66.60;;;;;;5015901;28;20026;-78
2022/07/20 17:50:27;;;;;;;7.20;3.30;;;33.20;66.60;;;;;;5013662;28;20514;-72
2022/07/20 17:52:53;;;;;;;6.18;3.42;;;33.10;67.20;;;;;;5012186;28;20029;-73
2022/07/20 17:55:19;;;;;;;6.13;3.35;;;33.00;66.80;;;;;;5011464;28;20375;-74
2022/07/20 17:57:45;;;;;;;5.65;3.13;;;32.90;66.90;;;;;;5012318;28;20033;-75
2022/07/20 18:00:13;;;;;;;7.28;3.22;;;32.80;67.10;;;;;;5024809;28;20033;-73
2022/07/20 18:02:38;;;;;;;6.82;3.45;;;32.70;67.30;;;;;;5016155;28;20065;-72
2022/07/20 18:05:05;;;;;;;9.35;4.05;;;32.60;67.50;;;;;;5017655;28;20142;-73
2022/07/20 18:07:31;;;;;;;7.18;3.80;;;32.60;67.70;;;;;;5007530;28;20017;-74
2022/07/20 18:09:57;;;;;;;8.25;3.50;;;32.50;67.80;;;;;;5013681;28;20021;-72
2022/07/20 18:12:23;;;;;;;7.22;3.35;;;32.50;68.20;;;;;;5020957;28;20052;-73
2022/07/20 18:14:48;;;;;;;10.00;3.83;;;32.40;68.50;;;;;;5019138;28;20610;-73
2022/07/20 18:17:14;;;;;;;8.32;3.08;;;32.20;68.90;;;;;;5016600;28;20022;-73
2022/07/20 18:19:40;;;;;;;7.32;3.80;;;32.20;68.80;;;;;;5014572;28;20041;-72
2022/07/20 18:22:06;;;;;;;9.02;4.05;;;32.20;68.50;;;;;;5019361;28;20050;-72
2022/07/20 18:24:32;;;;;;;8.20;3.35;;;32.20;68.90;;;;;;5011664;28;20044;-73
2022/07/20 18:26:58;;;;;;;6.35;3.70;;;32.10;68.90;;;;;;5005697;28;20557;-72
2022/07/20 18:29:24;;;;;;;6.90;3.50;;;32.10;69.30;;;;;;5010149;28;20052;-72
2022/07/20 18:31:49;;;;;;;7.85;3.53;;;32.00;69.40;;;;;;5013506;28;20471;-72
2022/07/20 18:34:16;;;;;;;6.85;3.45;;;32.00;69.40;;;;;;5023083;28;20495;-72
2022/07/20 18:36:44;;;;;;;5.32;3.30;;;31.90;69.80;;;;;;5008016;28;20030;-72
2022/07/20 18:39:10;;;;;;;7.32;3.75;;;31.80;69.80;;;;;;5015091;28;20033;-72
2022/07/20 18:41:36;;;;;;;6.40;3.78;;;31.80;69.50;;;;;;5016924;28;20029;-72
2022/07/20 18:44:02;;;;;;;10.05;3.90;;;31.80;69.90;;;;;;5023528;28;20029;-72
2022/07/20 18:46:28;;;;;;;9.68;4.30;;;31.70;69.70;;;;;;5010955;28;20034;-72
2022/07/20 18:48:54;;;;;;;7.00;4.18;;;31.70;70.20;;;;;;5010640;28;20621;-72
2022/07/20 18:51:20;;;;;;;6.88;3.97;;;31.50;70.20;;;;;;5017693;28;20075;-73
2022/07/20 18:53:46;;;;;;;7.45;4.40;;;31.40;70.50;;;;;;5020695;28;20029;-72
2022/07/20 18:56:12;;;;;;;7.50;3.90;;;31.40;70.90;;;;;;5018846;28;20076;-72
2022/07/20 18:58:38;;;;;;;9.77;3.90;;;31.20;71.20;;;;;;5014874;28;20120;-72
2022/07/20 19:01:03;;;;;;;10.18;4.68;;;31.10;71.20;;;;;;5010892;28;20108;-72
2022/07/20 19:03:29;;;;;;;7.35;4.25;;;31.10;71.40;;;;;;5009714;28;20040;-72
2022/07/20 19:05:55;;;;;;;8.48;4.00;;;30.90;71.40;;;;;;5019598;28;20030;-72
2022/07/20 19:08:22;;;;;;;7.20;4.07;;;30.90;71.50;;;;;;5013027;28;20173;-72
2022/07/20 19:10:48;;;;;;;9.15;4.07;;;31.00;71.50;;;;;;5018168;28;20037;-72
2022/07/20 19:13:15;;;;;;;8.13;3.92;;;31.00;71.30;;;;;;5015230;28;20116;-72
2022/07/20 19:15:42;;;;;;;7.85;4.32;;;30.90;71.80;;;;;;5019611;28;20025;-72
2022/07/20 19:18:09;;;;;;;6.15;3.70;;;30.70;71.80;;;;;;5017965;28;20091;-71
2022/07/20 19:20:35;;;;;;;12.02;4.25;;;30.60;71.70;;;;;;5020379;28;20037;-71
2022/07/20 19:23:02;;;;;;;9.32;3.70;;;30.40;72.00;;;;;;5013522;28;20037;-71
2022/07/20 19:25:28;;;;;;;8.82;3.55;;;30.30;72.00;;;;;;5008179;28;20068;-71
2022/07/20 19:27:53;;;;;;;8.80;4.60;;;30.30;71.80;;;;;;5018671;28;20069;-71
2022/07/20 19:30:19;;;;;;;7.10;3.72;;;30.30;72.00;;;;;;5012225;28;20049;-72
2022/07/20 19:32:46;;;;;;;8.35;4.20;;;30.20;72.20;;;;;;5011707;28;20128;-72
2022/07/20 19:35:13;;;;;;;20.55;4.63;;;30.00;72.70;;;;;;5007364;28;20038;-71
2022/07/20 19:37:39;;;;;;;15.32;4.50;;;29.80;72.90;;;;;;5009637;28;20034;-71
2022/07/20 19:40:07;;;;;;;11.70;4.25;;;29.80;73.20;;;;;;5013284;28;20022;-71
2022/07/20 19:42:34;;;;;;;6.30;3.83;;;29.80;73.10;;;;;;5018022;28;20034;-71
2022/07/20 19:45:00;;;;;;;6.95;3.85;;;29.90;73.10;;;;;;5019087;28;20036;-71
2022/07/20 19:47:28;;;;;;;7.47;4.47;;;29.80;73.10;;;;;;5016255;28;20038;-72
2022/07/20 19:49:54;;;;;;;8.48;4.18;;;29.70;73.10;;;;;;5015335;28;20033;-72
2022/07/20 19:52:20;;;;;;;14.93;4.43;;;29.60;73.20;;;;;;5022700;28;20026;-71
2022/07/20 19:54:46;;;;;;;7.43;3.83;;;29.60;73.80;;;;;;5015895;28;20033;-71
2022/07/20 19:57:15;;;;;;;11.00;4.38;;;29.60;73.20;;;;;;5018506;28;20025;-72
2022/07/20 19:59:41;;;;;;;7.75;4.13;;;29.50;73.20;;;;;;5016002;28;20578;-71
2022/07/20 20:02:09;;;;;;;10.23;3.17;;;29.50;73.30;;;;;;5015047;28;20047;-71
2022/07/20 20:04:38;;;;;;;12.07;4.40;;;29.40;73.30;;;;;;5010537;28;20045;-71
2022/07/20 20:07:04;;;;;;;7.85;3.72;;;29.30;73.40;;;;;;5009708;28;20043;-71
2022/07/20 20:09:30;;;;;;;6.68;3.45;;;29.20;73.50;;;;;;5022559;28;21032;-72
2022/07/20 20:11:56;;;;;;;10.02;3.78;;;29.20;73.30;;;;;;5007896;28;20038;-73
2022/07/20 20:14:22;;;;;;;8.13;4.30;;;29.10;73.40;;;;;;5022429;28;20536;-72
2022/07/20 20:16:48;;;;;;;9.18;4.30;;;29.10;73.50;;;;;;5017347;28;20029;-72
2022/07/20 20:19:14;;;;;;;7.47;3.33;;;29.10;73.60;;;;;;5016308;28;20029;-71
2022/07/20 20:21:39;;;;;;;6.43;4.07;;;29.00;73.60;;;;;;5015902;28;20041;-71
2022/07/20 20:24:05;;;;;;;5.72;3.60;;;29.00;73.80;;;;;;5016207;28;20065;-72
2022/07/20 20:26:31;;;;;;;7.63;3.90;;;28.90;73.90;;;;;;5019997;28;20083;-72
2022/07/20 20:28:57;;;;;;;7.15;3.72;;;28.70;74.10;;;;;;5011153;28;20156;-72
2022/07/20 20:31:23;;;;;;;9.48;3.85;;;28.60;74.30;;;;;;5022312;28;20617;-72
2022/07/20 20:33:48;;;;;;;6.40;3.53;;;28.70;74.50;;;;;;5022594;28;20048;-71
2022/07/20 20:36:14;;;;;;;7.97;4.00;;;28.60;74.50;;;;;;5014691;28;20029;-72
2022/07/20 20:38:40;;;;;;;9.07;4.13;;;28.60;74.70;;;;;;5024269;28;20035;-72
2022/07/20 20:41:05;;;;;;;6.88;3.90;;;28.60;74.70;;;;;;5009631;28;20879;-72
2022/07/20 20:43:32;;;;;;;5.35;3.42;;;28.50;75.30;;;;;;5022651;28;20052;-72
2022/07/20 20:45:58;;;;;;;8.38;3.75;;;28.50;74.80;;;;;;5020398;28;20120;-71
2022/07/20 20:48:24;;;;;;;7.10;4.25;;;28.40;74.80;;;;;;5019925;28;20037;-72
2022/07/20 20:50:49;;;;;;;8.18;4.38;;;28.30;75.10;;;;;;5012544;28;20069;-71
2022/07/20 20:53:15;;;;;;;11.68;3.75;;;28.10;75.10;;;;;;5019533;28;20026;-72
2022/07/20 20:55:41;;;;;;;9.48;4.03;;;28.10;74.90;;;;;;5015423;28;20467;-72
2022/07/20 20:58:06;;;;;;;5.68;3.88;;;28.30;74.60;;;;;;5021640;28;20037;-72
2022/07/20 21:00:32;;;;;;;9.13;3.53;;;28.20;74.80;;;;;;5031117;28;20216;-71
2022/07/20 21:02:58;;;;;;;7.47;3.92;;;28.20;74.90;;;;;;5021800;28;20037;-71
2022/07/20 21:05:23;;;;;;;8.30;4.22;;;28.20;75.00;;;;;;5017180;28;20151;-72
2022/07/20 21:07:49;;;;;;;5.70;3.60;;;28.10;74.90;;;;;;5012134;28;20037;-71
2022/07/20 21:10:15;;;;;;;8.38;3.72;;;28.00;75.10;;;;;;5015769;28;20056;-73
2022/07/20 21:12:41;;;;;;;8.45;4.20;;;28.00;75.20;;;;;;5020022;28;20029;-72
2022/07/20 21:15:08;;;;;;;9.25;4.05;;;27.80;75.30;;;;;;5028861;28;20143;-72
2022/07/20 21:17:34;;;;;;;8.85;4.20;;;28.00;75.20;;;;;;5023558;28;20030;-72
2022/07/20 21:20:00;;;;;;;8.45;3.88;;;28.10;75.00;;;;;;5023795;28;20073;-72
2022/07/20 21:22:26;;;;;;;8.05;3.83;;;28.00;75.10;;;;;;5013013;28;20087;-72
2022/07/20 21:24:52;;;;;;;5.53;3.75;;;28.10;75.00;;;;;;5019770;28;20037;-72
2022/07/20 21:27:18;;;;;;;7.70;3.80;;;28.10;75.00;;;;;;5021462;28;20130;-72
2022/07/20 21:29:44;;;;;;;12.02;3.63;;;28.10;75.00;;;;;;5019732;28;20034;-72
2022/07/20 21:32:09;;;;;;;8.10;3.85;;;28.00;75.10;;;;;;5024228;28;20037;-71
2022/07/20 21:34:35;;;;;;;7.80;3.33;;;27.90;75.40;;;;;;5037305;28;20037;-71
2022/07/20 21:37:01;;;;;;;8.38;3.75;;;27.80;75.50;;;;;;5031867;28;20038;-71
2022/07/20 21:39:27;;;;;;;6.20;3.15;;;27.70;75.70;;;;;;5007865;28;20037;-71
2022/07/20 21:41:53;;;;;;;5.75;3.50;;;27.70;75.60;;;;;;5017256;28;20190;-71
2022/07/20 21:44:19;;;;;;;6.50;3.65;;;27.70;75.80;;;;;;5016926;28;20487;-71
2022/07/20 21:46:46;;;;;;;7.97;3.65;;;27.60;75.80;;;;;;5015775;28;20080;-71
2022/07/20 21:49:12;;;;;;;5.90;3.78;;;27.60;75.90;;;;;;5011621;28;20068;-73
2022/07/20 21:51:38;;;;;;;8.48;4.25;;;27.50;75.90;;;;;;5011752;28;20064;-71
2022/07/20 21:54:04;;;;;;;6.45;3.42;;;27.50;76.00;;;;;;5024859;28;20537;-71
2022/07/20 21:56:30;;;;;;;7.50;4.35;;;27.40;76.10;;;;;;5041507;28;20043;-71
2022/07/20 21:58:56;;;;;;;7.38;3.70;;;27.40;76.10;;;;;;5013790;28;20022;-71
2022/07/20 22:01:22;;;;;;;5.90;3.50;;;27.40;76.00;;;;;;5025179;28;20037;-71
2022/07/20 22:03:48;;;;;;;7.60;4.60;;;27.40;76.20;;;;;;5023342;28;20040;-71
2022/07/20 22:06:14;;;;;;;5.07;2.95;;;27.40;76.30;;;;;;5020913;28;20033;-72
2022/07/20 22:08:41;;;;;;;9.43;3.72;;;27.50;76.10;;;;;;5023326;28;20030;-71
2022/07/20 22:11:07;;;;;;;6.68;3.95;;;27.50;76.10;;;;;;5023379;28;20083;-71
2022/07/20 22:13:33;;;;;;;9.98;4.20;;;27.40;76.20;;;;;;5018313;28;20068;-71
2022/07/20 22:15:59;;;;;;;4.75;3.20;;;27.50;76.20;;;;;;5015102;28;20053;-71
2022/07/20 22:18:25;;;;;;;7.60;4.40;;;27.60;75.90;;;;;;5023722;28;20117;-71
2022/07/20 22:20:51;;;;;;;5.63;3.65;;;27.60;76.00;;;;;;5021975;28;20120;-71
2022/07/20 22:23:17;;;;;;;6.13;3.53;;;27.50;76.10;;;;;;5020357;28;20064;-71
2022/07/20 22:25:44;;;;;;;12.38;4.20;;;27.40;76.20;;;;;;5021777;28;20100;-71
2022/07/20 22:28:10;;;;;;;6.90;4.05;;;27.40;76.40;;;;;;5022138;28;20487;-71
2022/07/20 22:30:35;;;;;;;7.75;3.50;;;27.10;76.70;;;;;;5024329;28;20029;-71
2022/07/20 22:33:01;;;;;;;8.40;3.90;;;27.00;77.00;;;;;;5013304;28;20601;-72
2022/07/20 22:35:27;;;;;;;6.22;3.53;;;27.00;77.00;;;;;;5020542;28;20113;-71
2022/07/20 22:37:52;;;;;;;5.60;3.67;;;26.90;77.10;;;;;;5012444;28;20414;-71
2022/07/20 22:40:18;;;;;;;5.72;3.25;;;27.00;77.30;;;;;;5014812;28;20033;-71
2022/07/20 22:42:44;;;;;;;7.40;4.25;;;26.90;77.30;;;;;;5016533;28;20080;-71
2022/07/20 22:45:10;;;;;;;11.27;4.57;;;26.90;77.50;;;;;;5022441;28;20033;-71
2022/07/20 22:47:37;;;;;;;6.40;3.85;;;26.90;77.50;;;;;;5019688;28;20044;-71
2022/07/20 22:50:05;;;;;;;5.82;3.92;;;27.00;77.50;;;;;;5017316;28;20061;-71
2022/07/20 22:52:31;;;;;;;6.72;4.20;;;26.90;77.40;;;;;;5013525;28;20108;-71
2022/07/20 22:54:57;;;;;;;6.25;3.47;;;26.90;77.70;;;;;;5021039;28;20104;-72
2022/07/20 22:57:41;;;;;;;7.78;4.57;;;26.70;77.70;;;;;;5018573;28;20034;-71
2022/07/20 23:00:16;;;;;;;11.38;3.83;;;26.60;78.00;;;;;;5018470;28;20026;-71
2022/07/20 23:02:43;;;;;;;6.25;4.15;;;26.50;78.20;;;;;;5015170;28;20540;-71
2022/07/20 23:05:10;;;;;;;5.82;3.85;;;26.50;78.40;;;;;;5021887;28;20124;-71
2022/07/20 23:07:37;;;;;;;5.78;3.47;;;26.50;78.60;;;;;;5025697;28;20037;-72
2022/07/20 23:10:06;;;;;;;5.80;4.15;;;26.40;78.50;;;;;;5017498;28;20037;-72
2022/07/20 23:12:32;;;;;;;6.90;3.80;;;26.60;78.30;;;;;;5022911;28;20052;-71
2022/07/20 23:14:57;;;;;;;6.72;3.88;;;26.60;78.20;;;;;;5020258;28;20036;-71
2022/07/20 23:17:23;;;;;;;6.13;3.90;;;26.40;78.50;;;;;;5013200;28;20033;-72
2022/07/20 23:19:49;;;;;;;8.98;4.15;;;26.40;78.40;;;;;;5018516;28;20033;-72
2022/07/20 23:22:14;;;;;;;7.00;4.18;;;26.40;78.60;;;;;;5019886;28;20042;-71
2022/07/20 23:24:40;;;;;;;11.80;3.97;;;26.30;78.90;;;;;;5020940;28;20039;-72
2022/07/20 23:27:06;;;;;;;12.50;4.07;;;26.10;79.10;;;;;;5028975;28;20076;-71
2022/07/20 23:29:31;;;;;;;7.85;3.85;;;26.10;79.20;;;;;;5027832;28;20083;-71
2022/07/20 23:31:57;;;;;;;6.55;4.03;;;26.00;79.30;;;;;;5046521;28;20108;-71
2022/07/20 23:34:23;;;;;;;6.90;4.65;;;26.00;79.50;;;;;;5023282;28;20042;-71
2022/07/20 23:36:49;;;;;;;9.05;4.78;;;26.00;79.70;;;;;;5030462;28;20041;-71
2022/07/20 23:39:14;;;;;;;9.35;4.25;;;26.00;79.70;;;;;;5026647;28;20025;-71
2022/07/20 23:41:40;;;;;;;9.25;4.60;;;26.20;79.40;;;;;;5018219;28;20041;-71
2022/07/20 23:44:06;;;;;;;6.38;3.58;;;26.20;79.10;;;;;;5026985;28;20040;-71
2022/07/20 23:46:32;;;;;;;7.82;4.07;;;26.00;79.40;;;;;;5030140;28;20025;-71
2022/07/20 23:48:58;;;;;;;8.43;3.90;;;26.00;79.40;;;;;;5024263;28;20755;-71
2022/07/20 23:51:23;;;;;;;5.97;3.90;;;25.90;79.60;;;;;;5027978;28;20080;-71
2022/07/20 23:53:49;;;;;;;8.27;4.80;;;26.00;79.70;;;;;;5029833;28;20041;-72
2022/07/20 23:56:15;;;;;;;7.88;4.88;;;26.00;80.10;;;;;;5025983;28;20033;-71
2022/07/20 23:58:41;;;;;;;9.93;4.28;;;26.10;79.60;;;;;;5022921;28;20422;-71
